createdAt,value
2017-03-17T00:07:33.446Z,0
2017-03-17T00:17:33.382Z,0
2017-03-17T00:27:33.533Z,0
2017-03-17T00:37:33.433Z,0
2017-03-17T00:47:33.369Z,0
2017-03-17T00:57:33.429Z,0
2017-03-17T01:07:33.385Z,0
2017-03-17T01:17:33.482Z,0
2017-03-17T01:27:33.418Z,0
2017-03-17T01:37:33.509Z,0
2017-03-17T01:47:33.456Z,0
2017-03-17T01:57:33.489Z,0
2017-03-17T02:07:33.475Z,0
2017-03-17T02:17:33.539Z,0
2017-03-17T02:27:33.486Z,0
2017-03-17T02:37:33.603Z,0
2017-03-17T02:47:33.526Z,0
2017-03-17T02:57:33.598Z,0
2017-03-17T03:07:33.533Z,0
2017-03-17T03:17:33.584Z,0
2017-03-17T03:27:33.573Z,0
2017-03-17T03:37:33.544Z,0
2017-03-17T03:47:33.577Z,0
2017-03-17T03:57:33.538Z,0
2017-03-17T04:07:33.569Z,0
2017-03-17T04:17:33.594Z,0
2017-03-17T04:27:33.676Z,0
2017-03-17T04:37:33.574Z,0
2017-03-17T04:47:33.677Z,0
2017-03-17T04:57:33.618Z,0
2017-03-17T05:07:33.706Z,0
2017-03-17T05:17:33.609Z,0
2017-03-17T05:27:33.696Z,0
2017-03-17T05:37:33.627Z,0
2017-03-17T05:47:33.748Z,5
2017-03-17T05:57:33.703Z,15
2017-03-17T06:07:33.673Z,20
2017-03-17T06:17:33.912Z,25
2017-03-17T06:27:33.681Z,40
2017-03-17T06:37:33.731Z,25
2017-03-17T06:47:33.693Z,25
2017-03-17T06:57:33.772Z,30
2017-03-17T07:07:33.732Z,30
2017-03-17T07:17:33.777Z,65
2017-03-17T07:27:33.726Z,85
2017-03-17T07:37:33.830Z,115
2017-03-17T07:47:33.758Z,230
2017-03-17T07:57:33.812Z,195
2017-03-17T08:07:33.750Z,230
2017-03-17T08:17:33.882Z,245
2017-03-17T08:27:33.833Z,230
2017-03-17T08:37:33.913Z,175
2017-03-17T08:47:33.817Z,225
2017-03-17T08:57:33.906Z,150
2017-03-17T09:07:33.827Z,135
2017-03-17T09:17:33.894Z,180
2017-03-17T09:27:33.847Z,145
2017-03-17T09:37:33.930Z,210
2017-03-17T09:47:33.925Z,340
2017-03-17T09:57:33.928Z,360
2017-03-17T10:07:33.979Z,335
2017-03-17T10:17:33.860Z,330
2017-03-17T10:27:33.875Z,375
2017-03-17T10:37:33.858Z,285
2017-03-17T10:47:33.880Z,300
2017-03-17T10:57:33.906Z,225
2017-03-17T11:07:33.941Z,265
2017-03-17T11:17:33.934Z,240
2017-03-17T11:27:33.888Z,150
2017-03-17T11:37:33.940Z,335
2017-03-17T11:47:33.944Z,285
2017-03-17T11:57:33.957Z,350
2017-03-17T12:07:34.021Z,360
2017-03-17T12:17:33.976Z,335
2017-03-17T12:27:34.000Z,345
2017-03-17T12:37:33.999Z,350
2017-03-17T12:47:33.991Z,285
2017-03-17T12:57:34.032Z,310
2017-03-17T13:07:34.121Z,365
2017-03-17T13:17:34.118Z,300
2017-03-17T13:27:34.798Z,245
2017-03-17T13:37:34.065Z,245
2017-03-17T13:47:34.088Z,275
2017-03-17T13:57:34.161Z,225
2017-03-17T14:07:34.116Z,210
2017-03-17T14:17:46.456Z,145
2017-03-17T14:27:34.179Z,175
2017-03-17T14:37:34.412Z,160
2017-03-17T14:47:34.807Z,210
2017-03-17T14:57:34.572Z,195
2017-03-17T15:07:34.541Z,170
2017-03-17T15:17:34.447Z,155
2017-03-17T15:27:34.420Z,135
2017-03-17T15:37:34.711Z,120
2017-03-17T15:47:34.358Z,115
2017-03-17T15:57:34.180Z,75
2017-03-17T16:07:34.197Z,65
2017-03-17T16:17:34.227Z,115
2017-03-17T16:27:34.189Z,100
2017-03-17T16:37:34.237Z,85
2017-03-17T16:47:34.503Z,50
2017-03-17T16:57:34.290Z,45
2017-03-17T17:07:34.287Z,25
2017-03-17T17:17:34.408Z,15
2017-03-17T17:27:36.171Z,10
2017-03-17T17:37:34.361Z,0
2017-03-17T17:47:34.342Z,0
2017-03-17T17:57:34.454Z,0
2017-03-17T18:07:34.402Z,0
2017-03-17T18:17:34.382Z,0
2017-03-17T18:27:34.381Z,0
2017-03-17T18:37:34.433Z,0
2017-03-17T18:47:34.585Z,0
2017-03-17T18:57:35.631Z,0
2017-03-17T19:07:34.625Z,0
2017-03-17T19:17:34.548Z,0
2017-03-17T19:27:34.631Z,0
2017-03-17T19:37:35.506Z,0
2017-03-17T19:47:34.804Z,0
2017-03-17T19:57:34.988Z,0
2017-03-17T20:07:34.832Z,0
2017-03-17T20:17:34.948Z,0
2017-03-17T20:27:35.194Z,0
2017-03-17T20:37:35.364Z,0
2017-03-17T20:47:35.899Z,0
2017-03-17T20:57:35.986Z,0
2017-03-17T21:07:34.709Z,0
2017-03-17T21:17:35.837Z,0
2017-03-17T21:37:36.329Z,0
2017-03-17T21:47:36.511Z,0
2017-03-17T21:57:35.237Z,0
2017-03-17T22:07:35.519Z,0
2017-03-17T22:17:35.162Z,0
2017-03-17T22:27:35.384Z,0
2017-03-17T22:37:34.577Z,0
2017-03-17T22:47:34.773Z,0
2017-03-17T22:57:34.759Z,0
2017-03-17T23:07:34.665Z,0
2017-03-17T23:17:34.641Z,0
2017-03-17T23:27:34.561Z,0
2017-03-17T23:37:34.612Z,0
2017-03-17T23:47:34.581Z,0
2017-03-17T23:57:34.651Z,0
